createdAt,value
2019-02-20T00:00:09.624Z,54.70
2019-02-20T00:01:15.738Z,54.70
2019-02-20T00:02:20.390Z,54.80
2019-02-20T00:03:24.857Z,54.70
2019-02-20T00:04:29.336Z,54.70
2019-02-20T00:05:33.852Z,54.70
2019-02-20T00:06:38.318Z,54.90
2019-02-20T00:07:42.783Z,54.80
2019-02-20T00:08:47.275Z,54.80
2019-02-20T00:09:51.775Z,54.90
2019-02-20T00:10:56.229Z,54.80
2019-02-20T00:12:00.705Z,54.80
2019-02-20T00:13:05.187Z,54.80
2019-02-20T00:14:09.677Z,54.80
2019-02-20T00:15:14.179Z,54.70
2019-02-20T00:16:18.747Z,54.70
2019-02-20T00:17:23.257Z,54.80
2019-02-20T00:18:27.709Z,54.80
2019-02-20T00:19:32.259Z,54.80
2019-02-20T00:20:36.804Z,54.90
2019-02-20T00:21:42.419Z,54.80
2019-02-20T00:22:48.138Z,54.90
2019-02-20T00:23:54.159Z,54.90
2019-02-20T00:25:00.336Z,54.90
2019-02-20T00:26:05.236Z,55.00
2019-02-20T00:27:09.793Z,55.10
2019-02-20T00:28:14.249Z,55.20
2019-02-20T00:29:18.742Z,55.90
2019-02-20T00:30:23.243Z,55.40
2019-02-20T00:31:27.770Z,55.30
2019-02-20T00:32:32.227Z,55.50
2019-02-20T00:33:36.722Z,55.50
2019-02-20T00:34:41.211Z,55.40
2019-02-20T00:35:45.675Z,55.50
2019-02-20T00:36:50.191Z,55.60
2019-02-20T00:37:54.716Z,55.40
2019-02-20T00:38:59.189Z,56.10
2019-02-20T00:40:05.261Z,55.50
2019-02-20T00:41:09.811Z,55.70
2019-02-20T00:42:14.280Z,55.60
2019-02-20T00:43:18.776Z,55.60
2019-02-20T00:44:27.610Z,55.60
2019-02-20T00:45:39.571Z,55.70
2019-02-20T00:46:45.683Z,55.50
2019-02-20T00:48:10.173Z,55.50
2019-02-20T00:49:16.301Z,56.10
2019-02-20T00:50:22.414Z,55.30
2019-02-20T00:51:28.550Z,55.30
2019-02-20T00:52:50.487Z,55.30
2019-02-20T00:53:59.555Z,55.30
2019-02-20T00:55:05.583Z,55.10
2019-02-20T00:56:10.044Z,55.20
2019-02-20T00:57:14.512Z,55.20
2019-02-20T00:58:19.006Z,55.00
2019-02-20T00:59:23.857Z,55.40
2019-02-20T01:00:28.318Z,55.40
2019-02-20T01:01:32.795Z,55.40
2019-02-20T01:02:37.256Z,55.50
2019-02-20T01:03:42.190Z,55.50
2019-02-20T01:04:46.692Z,55.50
2019-02-20T01:05:51.228Z,55.40
2019-02-20T01:06:55.700Z,55.50
2019-02-20T01:08:00.153Z,55.50
2019-02-20T01:09:05.485Z,55.60
2019-02-20T01:10:10.045Z,55.60
2019-02-20T01:11:14.669Z,55.50
2019-02-20T01:12:19.149Z,55.60
2019-02-20T01:13:23.626Z,55.60
2019-02-20T01:14:28.558Z,55.60
2019-02-20T01:15:33.082Z,55.70
2019-02-20T01:16:37.611Z,55.70
2019-02-20T01:17:42.085Z,55.70
2019-02-20T01:18:46.966Z,55.60
2019-02-20T01:19:51.543Z,55.60
2019-02-20T01:20:56.049Z,55.70
2019-02-20T01:22:00.522Z,55.70
2019-02-20T01:23:05.069Z,55.70
2019-02-20T01:24:09.884Z,55.80
2019-02-20T01:25:14.352Z,55.70
2019-02-20T01:26:18.904Z,55.70
2019-02-20T01:27:23.654Z,55.80
2019-02-20T01:28:28.191Z,55.80
2019-02-20T01:29:32.660Z,55.80
2019-02-20T01:30:37.191Z,55.80
2019-02-20T01:31:41.720Z,55.80
2019-02-20T01:32:46.502Z,55.80
2019-02-20T01:33:51.265Z,55.80
2019-02-20T01:34:55.752Z,55.80
2019-02-20T01:36:00.236Z,55.80
2019-02-20T01:37:04.774Z,55.90
2019-02-20T01:38:09.248Z,55.90
2019-02-20T01:39:13.728Z,55.90
2019-02-20T01:40:18.181Z,55.90
2019-02-20T01:41:22.660Z,55.90
2019-02-20T01:42:27.161Z,55.90
2019-02-20T01:43:31.641Z,55.80
2019-02-20T01:44:36.118Z,55.80
2019-02-20T01:45:40.580Z,55.80
2019-02-20T01:46:45.367Z,55.80
2019-02-20T01:47:49.899Z,55.70
2019-02-20T01:48:54.438Z,55.70
2019-02-20T01:49:58.924Z,55.80
2019-02-20T01:51:03.466Z,55.80
2019-02-20T01:52:10.723Z,55.80
2019-02-20T01:53:15.610Z,55.80
2019-02-20T01:54:20.140Z,55.80
2019-02-20T01:55:24.619Z,55.80
2019-02-20T01:56:29.171Z,55.80
2019-02-20T01:57:33.664Z,55.90
2019-02-20T01:58:38.139Z,55.90
2019-02-20T01:59:42.618Z,55.90
2019-02-20T02:00:47.143Z,55.90
2019-02-20T02:01:51.601Z,55.80
2019-02-20T02:02:56.107Z,55.80
2019-02-20T02:04:00.773Z,55.80
2019-02-20T02:05:14.893Z,55.90
2019-02-20T02:06:12.976Z,55.90
2019-02-20T02:07:17.438Z,55.80
2019-02-20T02:08:21.913Z,55.80
2019-02-20T02:09:26.411Z,55.90
2019-02-20T02:10:30.891Z,55.90
2019-02-20T02:11:35.362Z,55.90
2019-02-20T02:12:39.841Z,55.80
2019-02-20T02:13:44.323Z,55.90
2019-02-20T02:14:48.890Z,55.80
2019-02-20T02:15:53.364Z,55.80
2019-02-20T02:16:57.846Z,55.80
2019-02-20T02:18:02.307Z,55.80
2019-02-20T02:19:06.963Z,55.90
2019-02-20T02:20:11.616Z,55.80
2019-02-20T02:21:16.673Z,55.80
2019-02-20T02:22:21.140Z,55.80
2019-02-20T02:23:25.607Z,55.80
2019-02-20T02:24:30.075Z,55.80
2019-02-20T02:25:34.555Z,55.80
2019-02-20T02:26:39.211Z,55.70
2019-02-20T02:27:43.683Z,55.80
2019-02-20T02:28:48.135Z,55.70
2019-02-20T02:29:52.701Z,55.70
2019-02-20T02:30:57.212Z,55.70
2019-02-20T02:32:01.674Z,56.00
2019-02-20T02:33:06.144Z,55.70
2019-02-20T02:34:10.617Z,55.70
2019-02-20T02:35:15.071Z,55.80
2019-02-20T02:36:19.573Z,56.40
2019-02-20T02:37:24.068Z,55.90
2019-02-20T02:38:28.522Z,56.50
2019-02-20T02:39:32.996Z,55.90
2019-02-20T02:40:37.471Z,55.80
2019-02-20T02:41:41.981Z,55.80
2019-02-20T02:42:46.456Z,55.90
2019-02-20T02:43:51.015Z,55.80
2019-02-20T02:44:55.575Z,55.90
2019-02-20T02:46:00.341Z,55.80
2019-02-20T02:47:04.844Z,55.80
2019-02-20T02:48:09.341Z,55.70
2019-02-20T02:49:13.855Z,55.70
2019-02-20T02:50:18.473Z,55.70
2019-02-20T02:51:22.937Z,55.80
2019-02-20T02:52:27.418Z,55.80
2019-02-20T02:53:31.899Z,55.80
2019-02-20T02:54:36.546Z,55.80
2019-02-20T02:55:41.032Z,55.90
2019-02-20T02:56:45.545Z,55.90
2019-02-20T02:57:50.021Z,56.00
2019-02-20T02:58:54.578Z,56.00
2019-02-20T02:59:59.047Z,56.00
2019-02-20T03:01:03.649Z,56.00
2019-02-20T03:02:08.164Z,56.00
2019-02-20T03:03:12.643Z,56.00
2019-02-20T03:04:17.102Z,56.00
2019-02-20T03:05:21.585Z,56.00
2019-02-20T03:06:26.086Z,56.00
2019-02-20T03:07:30.573Z,56.00
2019-02-20T03:08:35.120Z,56.00
2019-02-20T03:09:39.638Z,56.00
2019-02-20T03:10:44.185Z,56.10
2019-02-20T03:11:48.676Z,56.00
2019-02-20T03:12:53.144Z,56.00
2019-02-20T03:13:57.616Z,56.00
2019-02-20T03:15:02.104Z,56.00
2019-02-20T03:16:06.594Z,56.00
2019-02-20T03:17:11.148Z,56.10
2019-02-20T03:18:15.658Z,56.10
2019-02-20T03:19:20.124Z,56.10
2019-02-20T03:20:24.600Z,56.00
2019-02-20T03:21:29.154Z,56.10
2019-02-20T03:22:33.696Z,56.80
2019-02-20T03:23:40.480Z,56.20
2019-02-20T03:24:44.639Z,56.20
2019-02-20T03:25:49.103Z,56.20
2019-02-20T03:26:53.575Z,56.20
2019-02-20T03:27:58.108Z,56.30
2019-02-20T03:29:02.582Z,56.20
2019-02-20T03:30:08.956Z,56.10
2019-02-20T03:31:13.530Z,56.20
2019-02-20T03:32:17.974Z,56.30
2019-02-20T03:33:22.454Z,56.30
2019-02-20T03:34:27.191Z,56.30
2019-02-20T03:35:31.671Z,56.20
2019-02-20T03:36:36.250Z,56.20
2019-02-20T03:37:40.710Z,56.40
2019-02-20T03:38:45.187Z,56.30
2019-02-20T03:39:49.656Z,56.30
2019-02-20T03:40:54.156Z,56.40
2019-02-20T03:41:58.699Z,56.40
2019-02-20T03:43:03.165Z,56.40
2019-02-20T03:44:07.649Z,56.40
2019-02-20T03:45:12.117Z,56.40
2019-02-20T03:46:16.590Z,56.40
2019-02-20T03:47:21.061Z,56.30
2019-02-20T03:48:25.526Z,56.40
2019-02-20T03:49:29.986Z,56.40
2019-02-20T03:50:34.485Z,56.40
2019-02-20T03:51:38.975Z,56.40
2019-02-20T03:52:43.538Z,56.40
2019-02-20T03:53:51.736Z,56.30
2019-02-20T03:54:54.445Z,56.30
2019-02-20T03:56:00.090Z,56.40
2019-02-20T03:57:04.750Z,56.40
2019-02-20T03:58:09.309Z,56.40
2019-02-20T03:59:13.784Z,56.30
2019-02-20T04:00:18.299Z,56.40
2019-02-20T04:01:22.777Z,56.30
2019-02-20T04:02:27.268Z,56.30
2019-02-20T04:03:31.853Z,56.30
2019-02-20T04:04:36.345Z,56.40
2019-02-20T04:05:40.816Z,56.30
2019-02-20T04:06:45.295Z,56.30
2019-02-20T04:07:49.834Z,56.30
2019-02-20T04:08:54.318Z,56.40
2019-02-20T04:09:58.806Z,56.40
2019-02-20T04:11:03.298Z,56.30
2019-02-20T04:12:07.768Z,56.30
2019-02-20T04:13:12.243Z,56.30
2019-02-20T04:14:16.712Z,56.30
2019-02-20T04:15:21.272Z,56.20
2019-02-20T04:16:25.826Z,56.20
2019-02-20T04:17:30.391Z,56.20
2019-02-20T04:18:34.875Z,56.20
2019-02-20T04:19:39.425Z,56.10
2019-02-20T04:20:43.903Z,56.20
2019-02-20T04:21:48.734Z,56.10
2019-02-20T04:22:53.248Z,56.10
2019-02-20T04:24:02.635Z,56.20
2019-02-20T04:25:04.589Z,56.20
2019-02-20T04:26:09.897Z,56.30
2019-02-20T04:27:14.598Z,56.30
2019-02-20T04:28:19.123Z,56.30
2019-02-20T04:29:23.606Z,56.20
2019-02-20T04:30:28.077Z,56.20
2019-02-20T04:31:32.529Z,56.30
2019-02-20T04:32:37.050Z,56.30
2019-02-20T04:33:41.709Z,56.20
2019-02-20T04:34:46.198Z,56.30
2019-02-20T04:35:50.741Z,56.30
2019-02-20T04:36:55.211Z,56.30
2019-02-20T04:37:59.697Z,56.40
2019-02-20T04:39:05.537Z,56.40
2019-02-20T04:40:10.064Z,56.40
2019-02-20T04:41:14.609Z,56.40
2019-02-20T04:42:19.251Z,56.40
2019-02-20T04:43:23.766Z,56.40
2019-02-20T04:44:28.258Z,56.40
2019-02-20T04:45:32.739Z,56.40
2019-02-20T04:46:37.221Z,56.40
2019-02-20T04:47:41.759Z,56.40
2019-02-20T04:48:46.253Z,56.50
2019-02-20T04:49:50.775Z,56.40
2019-02-20T04:50:55.234Z,56.40
2019-02-20T04:51:59.715Z,56.50
2019-02-20T04:53:04.184Z,56.50
2019-02-20T04:54:13.488Z,56.40
2019-02-20T04:55:14.844Z,56.40
2019-02-20T04:56:19.310Z,56.50
2019-02-20T04:57:23.955Z,56.50
2019-02-20T04:58:28.472Z,56.50
2019-02-20T04:59:32.914Z,56.50
2019-02-20T05:00:37.420Z,56.50
2019-02-20T05:01:41.971Z,56.50
2019-02-20T05:02:46.487Z,56.50
2019-02-20T05:03:50.979Z,56.50
2019-02-20T05:04:55.492Z,56.60
2019-02-20T05:06:00.022Z,56.60
2019-02-20T05:07:04.562Z,56.50
2019-02-20T05:08:09.110Z,56.60
2019-02-20T05:09:13.670Z,56.60
2019-02-20T05:10:18.178Z,56.60
2019-02-20T05:11:22.738Z,56.60
2019-02-20T05:12:27.228Z,56.50
2019-02-20T05:13:31.685Z,56.60
2019-02-20T05:14:36.150Z,56.50
2019-02-20T05:15:40.632Z,56.50
2019-02-20T05:16:45.427Z,56.60
2019-02-20T05:17:49.907Z,56.60
2019-02-20T05:18:54.358Z,56.60
2019-02-20T05:19:58.831Z,56.60
2019-02-20T05:21:03.372Z,56.60
2019-02-20T05:22:07.940Z,56.60
2019-02-20T05:23:12.419Z,56.60
2019-02-20T05:24:23.970Z,56.60
2019-02-20T05:25:23.081Z,56.60
2019-02-20T05:26:27.563Z,56.60
2019-02-20T05:27:32.059Z,56.70
2019-02-20T05:28:36.540Z,56.70
2019-02-20T05:29:40.998Z,56.80
2019-02-20T05:30:45.473Z,56.80
2019-02-20T05:31:49.977Z,56.80
2019-02-20T05:32:54.512Z,56.80
2019-02-20T05:33:58.988Z,56.80
2019-02-20T05:35:03.455Z,57.10
2019-02-20T05:36:07.989Z,56.80
2019-02-20T05:37:12.472Z,56.80
2019-02-20T05:38:16.947Z,56.80
2019-02-20T05:39:21.410Z,56.80
2019-02-20T05:40:25.901Z,56.80
2019-02-20T05:41:30.365Z,56.80
2019-02-20T05:42:34.897Z,56.90
2019-02-20T05:43:39.383Z,56.90
2019-02-20T05:44:43.841Z,56.90
2019-02-20T05:45:48.321Z,56.90
2019-02-20T05:46:52.878Z,56.90
2019-02-20T05:47:57.343Z,56.90
2019-02-20T05:49:01.825Z,57.00
2019-02-20T05:50:07.641Z,56.90
2019-02-20T05:51:12.113Z,57.00
2019-02-20T05:52:16.653Z,56.40
2019-02-20T05:53:21.236Z,56.90
2019-02-20T05:54:34.078Z,57.00
2019-02-20T05:55:31.934Z,57.00
2019-02-20T05:56:36.452Z,57.00
2019-02-20T05:57:40.905Z,56.90
2019-02-20T05:58:45.433Z,57.00
2019-02-20T05:59:50.015Z,57.00
2019-02-20T06:00:54.484Z,57.00
2019-02-20T06:01:59.043Z,57.00
2019-02-20T06:03:05.009Z,57.00
2019-02-20T06:04:09.765Z,56.90
2019-02-20T06:05:14.265Z,57.00
2019-02-20T06:06:18.781Z,57.00
2019-02-20T06:07:23.317Z,57.00
2019-02-20T06:08:27.813Z,57.00
2019-02-20T06:09:32.283Z,57.00
2019-02-20T06:10:36.756Z,57.00
2019-02-20T06:11:42.691Z,57.00
2019-02-20T06:12:47.157Z,57.00
2019-02-20T06:13:51.651Z,57.00
2019-02-20T06:14:56.151Z,57.00
2019-02-20T06:16:00.620Z,57.00
2019-02-20T06:17:05.150Z,57.00
2019-02-20T06:18:09.658Z,57.00
2019-02-20T06:19:14.136Z,57.00
2019-02-20T06:20:18.654Z,56.90
2019-02-20T06:21:23.173Z,57.00
2019-02-20T06:22:27.659Z,57.00
2019-02-20T06:23:32.136Z,57.00
2019-02-20T06:24:43.955Z,57.00
2019-02-20T06:25:42.796Z,57.00
2019-02-20T06:26:47.280Z,57.00
2019-02-20T06:27:51.799Z,57.00
2019-02-20T06:28:56.507Z,57.00
2019-02-20T06:30:01.013Z,57.00
2019-02-20T06:31:05.512Z,57.00
2019-02-20T06:32:10.043Z,57.10
2019-02-20T06:33:14.531Z,57.20
2019-02-20T06:34:19.005Z,57.10
2019-02-20T06:35:23.488Z,57.20
2019-02-20T06:36:27.988Z,57.20
2019-02-20T06:37:32.473Z,57.20
2019-02-20T06:38:37.120Z,57.30
2019-02-20T06:39:41.600Z,57.20
2019-02-20T06:40:46.072Z,57.20
2019-02-20T06:41:50.625Z,57.30
2019-02-20T06:42:55.115Z,57.20
2019-02-20T06:43:59.650Z,57.30
2019-02-20T06:45:07.032Z,57.20
2019-02-20T06:46:11.794Z,57.10
2019-02-20T06:47:16.258Z,57.10
2019-02-20T06:48:20.757Z,57.10
2019-02-20T06:49:25.235Z,57.10
2019-02-20T06:50:29.709Z,57.10
2019-02-20T06:51:34.285Z,57.10
2019-02-20T06:52:38.835Z,57.30
2019-02-20T06:53:43.302Z,57.20
2019-02-20T06:54:53.818Z,57.30
2019-02-20T06:55:54.312Z,57.20
2019-02-20T06:56:58.892Z,57.40
2019-02-20T06:58:03.359Z,57.50
2019-02-20T06:59:07.831Z,57.40
2019-02-20T07:00:13.980Z,57.50
2019-02-20T07:01:18.564Z,57.60
2019-02-20T07:02:23.067Z,57.70
2019-02-20T07:03:27.668Z,57.70
2019-02-20T07:04:32.203Z,57.70
2019-02-20T07:05:38.529Z,58.50
2019-02-20T07:06:54.845Z,57.80
2019-02-20T07:08:14.398Z,57.80
2019-02-20T07:09:33.643Z,58.30
2019-02-20T07:11:12.977Z,57.70
2019-02-20T07:12:26.502Z,57.70
2019-02-20T07:13:34.058Z,57.50
2019-02-20T07:15:01.459Z,57.60
2019-02-20T07:16:20.589Z,57.60
2019-02-20T07:17:46.269Z,57.50
2019-02-20T07:18:56.526Z,57.50
2019-02-20T07:20:26.482Z,57.50
2019-02-20T07:21:46.032Z,57.60
2019-02-20T07:23:10.178Z,57.50
2019-02-20T07:24:20.596Z,57.50
2019-02-20T07:25:43.127Z,57.50
2019-02-20T07:26:59.374Z,57.60
2019-02-20T07:28:06.978Z,57.50
2019-02-20T07:29:35.868Z,57.50
2019-02-20T07:30:40.423Z,57.70
2019-02-20T07:31:44.962Z,57.70
2019-02-20T07:32:49.466Z,57.80
2019-02-20T07:33:54.021Z,57.90
2019-02-20T07:34:58.507Z,58.00
2019-02-20T07:36:03.057Z,57.90
2019-02-20T07:37:07.609Z,58.00
2019-02-20T07:38:12.128Z,57.90
2019-02-20T07:39:16.601Z,57.90
2019-02-20T07:40:21.107Z,57.90
2019-02-20T07:41:25.583Z,57.80
2019-02-20T07:42:30.958Z,57.80
2019-02-20T07:43:35.505Z,57.80
2019-02-20T07:44:39.989Z,57.80
2019-02-20T07:45:44.470Z,57.80
2019-02-20T07:46:48.960Z,57.80
2019-02-20T07:47:53.541Z,57.70
2019-02-20T07:48:58.027Z,57.70
2019-02-20T07:50:02.598Z,57.70
2019-02-20T07:51:07.089Z,57.60
2019-02-20T07:52:11.556Z,57.50
2019-02-20T07:53:16.027Z,57.50
2019-02-20T07:54:20.509Z,57.50
2019-02-20T07:55:24.983Z,57.50
2019-02-20T07:56:29.632Z,58.20
2019-02-20T07:57:34.188Z,57.60
2019-02-20T07:58:38.684Z,57.50
2019-02-20T07:59:43.171Z,57.50
2019-02-20T08:00:47.720Z,57.50
2019-02-20T08:01:52.203Z,57.50
2019-02-20T08:02:56.707Z,57.50
2019-02-20T08:04:01.236Z,57.60
2019-02-20T08:05:06.630Z,57.60
2019-02-20T08:06:11.192Z,57.70
2019-02-20T08:07:15.663Z,57.70
2019-02-20T08:08:20.218Z,57.90
2019-02-20T08:09:24.795Z,57.80
2019-02-20T08:10:29.336Z,57.90
2019-02-20T08:11:33.800Z,57.90
2019-02-20T08:12:38.297Z,57.80
2019-02-20T08:13:42.766Z,57.70
2019-02-20T08:14:47.261Z,57.70
2019-02-20T08:15:52.287Z,57.80
2019-02-20T08:16:56.769Z,57.60
2019-02-20T08:18:01.247Z,57.50
2019-02-20T08:19:05.983Z,57.40
2019-02-20T08:20:10.826Z,57.30
2019-02-20T08:21:15.321Z,57.20
2019-02-20T08:22:19.859Z,57.20
2019-02-20T08:23:24.389Z,57.10
2019-02-20T08:24:28.872Z,57.00
2019-02-20T08:25:33.346Z,57.00
2019-02-20T08:26:37.816Z,56.90
2019-02-20T08:27:42.291Z,56.90
2019-02-20T08:28:46.793Z,57.00
2019-02-20T08:29:51.366Z,57.00
2019-02-20T08:30:55.926Z,57.10
2019-02-20T08:32:00.477Z,57.20
2019-02-20T08:33:04.975Z,57.40
2019-02-20T08:34:09.590Z,57.50
2019-02-20T08:35:14.049Z,57.50
2019-02-20T08:36:18.545Z,57.40
2019-02-20T08:37:23.046Z,57.50
2019-02-20T08:38:27.515Z,57.40
2019-02-20T08:39:31.989Z,57.30
2019-02-20T08:40:36.482Z,57.30
2019-02-20T08:41:40.963Z,57.30
2019-02-20T08:42:45.464Z,57.30
2019-02-20T08:43:49.995Z,57.30
2019-02-20T08:44:54.540Z,56.80
2019-02-20T08:45:59.040Z,57.10
2019-02-20T08:47:03.601Z,57.00
2019-02-20T08:48:08.145Z,57.10
2019-02-20T08:49:12.671Z,57.20
2019-02-20T08:50:17.177Z,57.20
2019-02-20T08:51:21.690Z,57.20
2019-02-20T08:52:26.157Z,57.10
2019-02-20T08:53:30.639Z,57.10
2019-02-20T08:54:35.135Z,57.00
2019-02-20T08:55:39.602Z,57.00
2019-02-20T08:56:44.112Z,57.00
2019-02-20T08:57:48.605Z,56.90
2019-02-20T08:58:53.066Z,56.80
2019-02-20T08:59:57.587Z,56.70
2019-02-20T09:01:02.070Z,56.70
2019-02-20T09:02:06.667Z,56.70
2019-02-20T09:03:11.141Z,56.70
2019-02-20T09:04:15.621Z,56.80
2019-02-20T09:05:20.094Z,57.40
2019-02-20T09:06:24.585Z,56.70
2019-02-20T09:07:29.139Z,56.70
2019-02-20T09:08:33.690Z,56.50
2019-02-20T09:09:38.185Z,56.40
2019-02-20T09:10:42.931Z,56.30
2019-02-20T09:11:47.424Z,56.70
2019-02-20T09:12:51.920Z,56.20
2019-02-20T09:13:56.475Z,56.20
2019-02-20T09:15:01.276Z,56.10
2019-02-20T09:16:05.759Z,56.00
2019-02-20T09:17:10.252Z,56.10
2019-02-20T09:18:14.740Z,56.20
2019-02-20T09:19:19.251Z,56.20
2019-02-20T09:20:23.751Z,56.20
2019-02-20T09:21:28.266Z,56.30
2019-02-20T09:22:32.781Z,56.40
2019-02-20T09:23:37.259Z,56.40
2019-02-20T09:24:41.800Z,56.50
2019-02-20T09:25:46.265Z,56.60
2019-02-20T09:26:50.761Z,57.20
2019-02-20T09:27:55.342Z,57.20
2019-02-20T09:28:59.823Z,56.80
2019-02-20T09:30:12.342Z,56.70
2019-02-20T09:31:16.821Z,56.80
2019-02-20T09:32:21.375Z,56.70
2019-02-20T09:33:25.873Z,56.70
2019-02-20T09:34:30.449Z,56.70
2019-02-20T09:35:34.992Z,56.60
2019-02-20T09:36:39.501Z,56.60
2019-02-20T09:37:44.140Z,56.60
2019-02-20T09:38:48.632Z,56.60
2019-02-20T09:39:53.098Z,56.60
2019-02-20T09:40:57.680Z,56.50
2019-02-20T09:42:02.292Z,56.80
2019-02-20T09:43:07.068Z,56.50
2019-02-20T09:44:11.538Z,56.40
2019-02-20T09:45:16.035Z,56.40
2019-02-20T09:46:20.844Z,56.30
2019-02-20T09:47:25.394Z,56.30
2019-02-20T09:48:29.897Z,56.30
2019-02-20T09:49:34.588Z,56.30
2019-02-20T09:50:39.069Z,56.30
2019-02-20T09:51:43.529Z,56.20
2019-02-20T09:52:52.530Z,56.10
2019-02-20T09:53:54.312Z,56.00
2019-02-20T09:54:58.778Z,56.00
2019-02-20T09:56:03.299Z,55.90
2019-02-20T09:57:07.930Z,55.80
2019-02-20T09:58:12.435Z,55.80
2019-02-20T09:59:16.954Z,55.70
2019-02-20T10:00:21.636Z,55.70
2019-02-20T10:01:26.101Z,55.80
2019-02-20T10:02:30.592Z,55.70
2019-02-20T10:03:35.099Z,55.70
2019-02-20T10:04:39.642Z,55.70
2019-02-20T10:05:44.165Z,55.70
2019-02-20T10:06:48.651Z,55.70
2019-02-20T10:07:53.141Z,55.50
2019-02-20T10:08:57.633Z,55.30
2019-02-20T10:10:02.199Z,55.20
2019-02-20T10:11:06.707Z,55.10
2019-02-20T10:12:11.211Z,54.80
2019-02-20T10:13:15.682Z,55.00
2019-02-20T10:14:20.160Z,54.90
2019-02-20T10:15:24.725Z,54.80
2019-02-20T10:16:29.222Z,54.80
2019-02-20T10:17:33.693Z,54.90
2019-02-20T10:18:38.179Z,55.00
2019-02-20T10:19:42.677Z,55.00
2019-02-20T10:20:47.202Z,54.90
2019-02-20T10:21:51.665Z,54.90
2019-02-20T10:22:56.146Z,55.00
2019-02-20T10:24:00.651Z,55.00
2019-02-20T10:25:07.272Z,54.80
2019-02-20T10:26:11.872Z,54.60
2019-02-20T10:27:16.443Z,54.50
2019-02-20T10:28:20.939Z,54.50
2019-02-20T10:29:25.481Z,54.40
2019-02-20T10:30:29.986Z,54.20
2019-02-20T10:31:34.563Z,54.00
2019-02-20T10:32:39.040Z,54.00
2019-02-20T10:33:43.588Z,53.90
2019-02-20T10:34:48.063Z,53.80
2019-02-20T10:35:52.652Z,53.70
2019-02-20T10:36:57.155Z,53.60
2019-02-20T10:38:01.645Z,53.50
2019-02-20T10:39:06.403Z,53.50
2019-02-20T10:40:11.619Z,53.50
2019-02-20T10:41:16.115Z,53.60
2019-02-20T10:42:20.960Z,53.50
2019-02-20T10:43:25.452Z,53.50
2019-02-20T10:44:29.953Z,53.50
2019-02-20T10:45:34.449Z,53.40
2019-02-20T10:46:38.947Z,53.30
2019-02-20T10:47:43.464Z,53.30
2019-02-20T10:48:47.953Z,53.40
2019-02-20T10:49:52.553Z,53.30
2019-02-20T10:50:57.538Z,53.00
2019-02-20T10:52:02.012Z,52.90
2019-02-20T10:53:06.582Z,53.00
2019-02-20T10:54:11.072Z,53.00
2019-02-20T10:55:15.629Z,53.10
2019-02-20T10:56:20.114Z,53.10
2019-02-20T10:57:24.581Z,53.20
2019-02-20T10:58:29.073Z,53.20
2019-02-20T10:59:33.549Z,53.00
2019-02-20T11:00:38.491Z,52.90
2019-02-20T11:01:43.129Z,52.90
2019-02-20T11:02:47.704Z,52.80
2019-02-20T11:03:52.277Z,52.70
2019-02-20T11:04:56.752Z,52.40
2019-02-20T11:06:01.282Z,52.40
2019-02-20T11:07:06.058Z,52.10
2019-02-20T11:08:10.586Z,52.20
2019-02-20T11:09:15.054Z,52.00
2019-02-20T11:10:19.555Z,52.00
2019-02-20T11:11:24.340Z,52.00
2019-02-20T11:12:28.899Z,52.00
2019-02-20T11:13:33.440Z,51.80
2019-02-20T11:14:37.981Z,51.90
2019-02-20T11:15:42.479Z,52.00
2019-02-20T11:16:46.974Z,52.10
2019-02-20T11:17:51.451Z,52.20
2019-02-20T11:18:56.015Z,52.50
2019-02-20T11:20:01.459Z,52.90
2019-02-20T11:21:05.949Z,53.30
2019-02-20T11:22:10.412Z,53.40
2019-02-20T11:23:14.977Z,53.20
2019-02-20T11:24:19.475Z,53.00
2019-02-20T11:25:23.967Z,52.70
2019-02-20T11:26:28.452Z,52.40
2019-02-20T11:27:32.969Z,52.20
2019-02-20T11:28:37.458Z,51.90
2019-02-20T11:29:41.931Z,51.60
2019-02-20T11:30:46.396Z,51.40
2019-02-20T11:31:50.964Z,51.20
2019-02-20T11:32:55.432Z,51.00
2019-02-20T11:34:01.766Z,50.50
2019-02-20T11:35:07.751Z,50.10
2019-02-20T11:36:12.235Z,49.80
2019-02-20T11:37:16.713Z,49.80
2019-02-20T11:38:21.235Z,49.50
2019-02-20T11:39:25.680Z,49.40
2019-02-20T11:40:30.188Z,49.30
2019-02-20T11:41:34.898Z,49.30
2019-02-20T11:42:39.383Z,49.40
2019-02-20T11:43:43.862Z,49.40
2019-02-20T11:44:48.399Z,49.40
2019-02-20T11:45:52.970Z,49.00
2019-02-20T11:46:57.471Z,49.50
2019-02-20T11:48:01.911Z,49.30
2019-02-20T11:49:06.381Z,49.30
2019-02-20T11:50:11.391Z,49.30
2019-02-20T11:51:15.926Z,49.10
2019-02-20T11:52:20.389Z,49.10
2019-02-20T11:53:24.896Z,49.10
2019-02-20T11:54:29.365Z,49.10
2019-02-20T11:55:33.849Z,49.20
2019-02-20T11:56:38.332Z,49.20
2019-02-20T11:57:42.845Z,49.20
2019-02-20T11:58:47.359Z,49.40
2019-02-20T11:59:54.943Z,49.50
2019-02-20T12:00:59.652Z,49.50
2019-02-20T12:02:04.208Z,49.50
2019-02-20T12:03:08.674Z,49.60
2019-02-20T12:04:13.192Z,49.70
2019-02-20T12:05:17.682Z,49.90
2019-02-20T12:06:22.307Z,49.90
2019-02-20T12:07:26.768Z,50.60
2019-02-20T12:08:31.248Z,50.80
2019-02-20T12:09:35.733Z,50.20
2019-02-20T12:10:40.593Z,50.30
2019-02-20T12:11:45.160Z,50.30
2019-02-20T12:12:49.636Z,50.50
2019-02-20T12:13:54.141Z,50.60
2019-02-20T12:14:58.635Z,50.80
2019-02-20T12:16:03.129Z,50.80
2019-02-20T12:17:07.639Z,50.90
2019-02-20T12:18:17.328Z,51.00
2019-02-20T12:19:18.480Z,51.10
2019-02-20T12:20:23.113Z,51.00
2019-02-20T12:21:27.669Z,51.10
2019-02-20T12:22:32.239Z,51.20
2019-02-20T12:23:37.037Z,51.10
2019-02-20T12:24:41.649Z,51.20
2019-02-20T12:25:46.196Z,51.30
2019-02-20T12:26:50.749Z,51.30
2019-02-20T12:27:55.324Z,51.40
2019-02-20T12:28:59.802Z,51.70
2019-02-20T12:30:06.914Z,51.90
2019-02-20T12:31:11.402Z,51.50
2019-02-20T12:32:15.922Z,51.50
2019-02-20T12:33:20.553Z,51.50
2019-02-20T12:34:25.026Z,51.50
2019-02-20T12:35:29.538Z,51.60
2019-02-20T12:36:34.050Z,51.60
2019-02-20T12:37:38.759Z,51.70
2019-02-20T12:38:43.276Z,51.90
2019-02-20T12:39:47.741Z,52.00
2019-02-20T12:40:52.247Z,52.00
2019-02-20T12:41:56.744Z,52.00
2019-02-20T12:43:01.223Z,52.10
2019-02-20T12:44:05.709Z,52.00
2019-02-20T12:45:10.469Z,52.10
2019-02-20T12:46:14.994Z,52.10
2019-02-20T12:47:19.773Z,52.20
2019-02-20T12:48:24.307Z,52.20
2019-02-20T12:49:29.273Z,52.30
2019-02-20T12:50:34.301Z,52.20
2019-02-20T12:51:38.893Z,52.20
2019-02-20T12:52:43.505Z,52.20
2019-02-20T12:53:48.054Z,52.20
2019-02-20T12:54:52.594Z,52.10
2019-02-20T12:55:57.156Z,52.10
2019-02-20T12:57:01.671Z,52.10
2019-02-20T12:58:06.134Z,52.10
2019-02-20T12:59:10.620Z,52.20
2019-02-20T13:00:16.915Z,52.20
2019-02-20T13:01:21.421Z,52.20
2019-02-20T13:02:25.933Z,52.20
2019-02-20T13:03:30.406Z,52.30
2019-02-20T13:04:34.893Z,52.30
2019-02-20T13:05:39.381Z,52.30
2019-02-20T13:06:43.845Z,52.30
2019-02-20T13:07:48.428Z,52.30
2019-02-20T13:08:52.891Z,52.50
2019-02-20T13:09:57.461Z,52.60
2019-02-20T13:11:02.010Z,52.70
2019-02-20T13:12:06.484Z,52.90
2019-02-20T13:13:11.138Z,53.00
2019-02-20T13:14:15.698Z,53.00
2019-02-20T13:15:20.220Z,53.10
2019-02-20T13:16:24.693Z,53.00
2019-02-20T13:17:29.227Z,53.10
2019-02-20T13:18:33.714Z,52.50
2019-02-20T13:19:38.208Z,53.10
2019-02-20T13:20:42.700Z,53.00
2019-02-20T13:21:48.106Z,52.80
2019-02-20T13:22:52.580Z,52.60
2019-02-20T13:23:57.168Z,52.10
2019-02-20T13:25:01.640Z,52.00
2019-02-20T13:26:06.120Z,51.90
2019-02-20T13:27:10.608Z,51.60
2019-02-20T13:28:15.106Z,51.40
2019-02-20T13:29:19.867Z,51.10
2019-02-20T13:30:24.344Z,50.70
2019-02-20T13:31:28.813Z,50.40
2019-02-20T13:32:33.302Z,50.10
2019-02-20T13:33:37.831Z,49.70
2019-02-20T13:34:42.314Z,49.50
2019-02-20T13:35:46.821Z,49.20
2019-02-20T13:36:51.335Z,48.90
2019-02-20T13:37:55.913Z,48.70
2019-02-20T13:39:00.411Z,48.70
2019-02-20T13:40:06.713Z,48.60
2019-02-20T13:41:12.544Z,48.40
2019-02-20T13:42:17.222Z,48.20
2019-02-20T13:43:21.785Z,47.90
2019-02-20T13:44:26.334Z,47.60
2019-02-20T13:45:31.121Z,47.40
2019-02-20T13:46:35.650Z,47.00
2019-02-20T13:47:40.522Z,46.60
2019-02-20T13:48:45.140Z,46.50
2019-02-20T13:49:49.613Z,46.30
2019-02-20T13:50:54.129Z,46.20
2019-02-20T13:51:58.670Z,46.30
2019-02-20T13:53:03.145Z,46.40
2019-02-20T13:54:07.667Z,46.30
2019-02-20T13:55:12.158Z,46.40
2019-02-20T13:56:16.706Z,46.70
2019-02-20T13:57:21.534Z,47.00